sensor_id;sensor_type;location;lat;lon;timestamp;P1;durP1;ratioP1;P2;durP2;ratioP2
9142;SDS011;54072;47.410;8.446;2023-04-16T00:01:05;3.50;;;3.20;;
9142;SDS011;54072;47.410;8.446;2023-04-16T00:03:33;3.10;;;2.80;;
9142;SDS011;54072;47.410;8.446;2023-04-16T00:06:00;3.53;;;2.53;;
9142;SDS011;54072;47.410;8.446;2023-04-16T00:08:28;3.00;;;2.80;;
9142;SDS011;54072;47.410;8.446;2023-04-16T00:10:55;3.47;;;2.70;;
9142;SDS011;54072;47.410;8.446;2023-04-16T00:13:24;5.23;;;2.97;;
9142;SDS011;54072;47.410;8.446;2023-04-16T00:15:53;3.50;;;3.20;;
9142;SDS011;54072;47.410;8.446;2023-04-16T00:18:20;3.90;;;2.77;;
9142;SDS011;54072;47.410;8.446;2023-04-16T00:20:48;2.93;;;2.73;;
9142;SDS011;54072;47.410;8.446;2023-04-16T00:23:15;3.70;;;3.20;;
9142;SDS011;54072;47.410;8.446;2023-04-16T00:25:43;2.97;;;2.77;;
9142;SDS011;54072;47.410;8.446;2023-04-16T00:28:10;5.13;;;3.30;;
9142;SDS011;54072;47.410;8.446;2023-04-16T00:30:39;3.50;;;3.20;;
9142;SDS011;54072;47.410;8.446;2023-04-16T00:33:07;3.50;;;3.20;;
9142;SDS011;54072;47.410;8.446;2023-04-16T00:35:34;3.87;;;3.47;;
9142;SDS011;54072;47.410;8.446;2023-04-16T00:38:02;3.60;;;3.30;;
9142;SDS011;54072;47.410;8.446;2023-04-16T00:40:29;4.10;;;3.20;;
9142;SDS011;54072;47.410;8.446;2023-04-16T00:42:57;4.47;;;3.40;;
9142;SDS011;54072;47.410;8.446;2023-04-16T00:45:24;3.63;;;3.33;;
9142;SDS011;54072;47.410;8.446;2023-04-16T00:47:53;4.80;;;4.33;;
9142;SDS011;54072;47.410;8.446;2023-04-16T00:50:21;4.53;;;3.70;;
9142;SDS011;54072;47.410;8.446;2023-04-16T00:52:49;5.00;;;3.80;;
9142;SDS011;54072;47.410;8.446;2023-04-16T00:55:17;5.57;;;3.60;;
9142;SDS011;54072;47.410;8.446;2023-04-16T00:57:46;3.87;;;3.47;;
9142;SDS011;54072;47.410;8.446;2023-04-16T01:00:14;3.80;;;3.37;;
9142;SDS011;54072;47.410;8.446;2023-04-16T01:02:41;3.90;;;3.27;;
9142;SDS011;54072;47.410;8.446;2023-04-16T01:05:10;3.93;;;3.53;;
9142;SDS011;54072;47.410;8.446;2023-04-16T01:07:38;4.10;;;3.70;;
9142;SDS011;54072;47.410;8.446;2023-04-16T01:10:06;3.90;;;3.40;;
9142;SDS011;54072;47.410;8.446;2023-04-16T01:12:33;4.10;;;3.70;;
9142;SDS011;54072;47.410;8.446;2023-04-16T01:15:01;4.83;;;4.10;;
9142;SDS011;54072;47.410;8.446;2023-04-16T01:17:29;4.60;;;3.77;;
9142;SDS011;54072;47.410;8.446;2023-04-16T01:19:57;4.73;;;4.20;;
9142;SDS011;54072;47.410;8.446;2023-04-16T01:22:26;4.20;;;3.83;;
9142;SDS011;54072;47.410;8.446;2023-04-16T01:24:54;4.13;;;3.73;;
9142;SDS011;54072;47.410;8.446;2023-04-16T01:27:21;4.73;;;4.20;;
9142;SDS011;54072;47.410;8.446;2023-04-16T01:29:49;5.33;;;4.30;;
9142;SDS011;54072;47.410;8.446;2023-04-16T01:32:17;5.43;;;4.43;;
9142;SDS011;54072;47.410;8.446;2023-04-16T01:34:44;4.90;;;4.23;;
9142;SDS011;54072;47.410;8.446;2023-04-16T01:37:12;4.97;;;4.40;;
9142;SDS011;54072;47.410;8.446;2023-04-16T01:39:40;6.10;;;4.53;;
9142;SDS011;54072;47.410;8.446;2023-04-16T01:42:08;5.03;;;4.33;;
9142;SDS011;54072;47.410;8.446;2023-04-16T01:44:36;4.47;;;4.07;;
9142;SDS011;54072;47.410;8.446;2023-04-16T01:47:03;4.43;;;4.03;;
9142;SDS011;54072;47.410;8.446;2023-04-16T01:49:31;4.43;;;4.03;;
9142;SDS011;54072;47.410;8.446;2023-04-16T01:51:59;4.67;;;4.23;;
9142;SDS011;54072;47.410;8.446;2023-04-16T01:54:26;4.87;;;4.17;;
9142;SDS011;54072;47.410;8.446;2023-04-16T01:56:55;4.40;;;4.00;;
9142;SDS011;54072;47.410;8.446;2023-04-16T01:59:23;5.07;;;4.50;;
9142;SDS011;54072;47.410;8.446;2023-04-16T02:01:51;5.93;;;4.23;;
9142;SDS011;54072;47.410;8.446;2023-04-16T02:04:18;4.50;;;4.07;;
9142;SDS011;54072;47.410;8.446;2023-04-16T02:06:46;5.13;;;4.30;;
9142;SDS011;54072;47.410;8.446;2023-04-16T02:09:13;4.03;;;3.67;;
9142;SDS011;54072;47.410;8.446;2023-04-16T02:11:41;4.93;;;4.30;;
9142;SDS011;54072;47.410;8.446;2023-04-16T02:14:10;4.10;;;3.70;;
9142;SDS011;54072;47.410;8.446;2023-04-16T02:16:37;5.50;;;3.93;;
9142;SDS011;54072;47.410;8.446;2023-04-16T02:19:05;5.07;;;4.50;;
9142;SDS011;54072;47.410;8.446;2023-04-16T02:21:32;5.30;;;4.17;;
9142;SDS011;54072;47.410;8.446;2023-04-16T02:24:00;4.77;;;4.23;;
9142;SDS011;54072;47.410;8.446;2023-04-16T02:26:28;4.87;;;4.10;;
9142;SDS011;54072;47.410;8.446;2023-04-16T02:28:55;5.50;;;4.30;;
9142;SDS011;54072;47.410;8.446;2023-04-16T02:31:24;4.20;;;3.80;;
9142;SDS011;54072;47.410;8.446;2023-04-16T02:33:53;6.10;;;4.40;;
9142;SDS011;54072;47.410;8.446;2023-04-16T02:36:21;4.83;;;4.27;;
9142;SDS011;54072;47.410;8.446;2023-04-16T02:38:48;5.47;;;4.20;;
9142;SDS011;54072;47.410;8.446;2023-04-16T02:41:16;4.83;;;4.33;;
9142;SDS011;54072;47.410;8.446;2023-04-16T02:43:43;4.90;;;4.50;;
9142;SDS011;54072;47.410;8.446;2023-04-16T02:46:11;4.70;;;4.20;;
9142;SDS011;54072;47.410;8.446;2023-04-16T02:48:40;7.30;;;4.83;;
9142;SDS011;54072;47.410;8.446;2023-04-16T02:51:07;6.97;;;4.70;;
9142;SDS011;54072;47.410;8.446;2023-04-16T02:53:35;5.63;;;4.93;;
9142;SDS011;54072;47.410;8.446;2023-04-16T02:56:02;6.80;;;4.83;;
9142;SDS011;54072;47.410;8.446;2023-04-16T02:58:30;6.60;;;5.17;;
9142;SDS011;54072;47.410;8.446;2023-04-16T03:00:57;5.97;;;5.07;;
9142;SDS011;54072;47.410;8.446;2023-04-16T03:03:25;5.70;;;5.00;;
9142;SDS011;54072;47.410;8.446;2023-04-16T03:05:54;7.23;;;5.53;;
9142;SDS011;54072;47.410;8.446;2023-04-16T03:08:21;5.93;;;5.00;;
9142;SDS011;54072;47.410;8.446;2023-04-16T03:10:49;6.03;;;5.07;;
9142;SDS011;54072;47.410;8.446;2023-04-16T03:13:16;7.33;;;5.17;;
9142;SDS011;54072;47.410;8.446;2023-04-16T03:15:46;6.40;;;5.00;;
9142;SDS011;54072;47.410;8.446;2023-04-16T03:18:14;5.07;;;4.40;;
9142;SDS011;54072;47.410;8.446;2023-04-16T03:20:41;6.87;;;5.03;;
9142;SDS011;54072;47.410;8.446;2023-04-16T03:23:10;5.77;;;4.27;;
9142;SDS011;54072;47.410;8.446;2023-04-16T03:25:38;5.50;;;4.90;;
9142;SDS011;54072;47.410;8.446;2023-04-16T03:28:06;4.90;;;4.40;;
9142;SDS011;54072;47.410;8.446;2023-04-16T03:30:34;5.73;;;5.03;;
9142;SDS011;54072;47.410;8.446;2023-04-16T03:33:01;6.87;;;5.00;;
9142;SDS011;54072;47.410;8.446;2023-04-16T03:35:29;6.00;;;5.03;;
9142;SDS011;54072;47.410;8.446;2023-04-16T03:37:56;5.30;;;4.80;;
9142;SDS011;54072;47.410;8.446;2023-04-16T03:40:25;6.83;;;5.20;;
9142;SDS011;54072;47.410;8.446;2023-04-16T03:42:53;5.73;;;5.03;;
9142;SDS011;54072;47.410;8.446;2023-04-16T03:45:20;5.97;;;5.03;;
9142;SDS011;54072;47.410;8.446;2023-04-16T03:47:48;5.53;;;4.90;;
9142;SDS011;54072;47.410;8.446;2023-04-16T03:50:18;5.40;;;4.90;;
9142;SDS011;54072;47.410;8.446;2023-04-16T03:52:45;5.97;;;5.07;;
9142;SDS011;54072;47.410;8.446;2023-04-16T03:55:14;8.23;;;5.20;;
9142;SDS011;54072;47.410;8.446;2023-04-16T03:57:43;6.63;;;5.20;;
9142;SDS011;54072;47.410;8.446;2023-04-16T04:00:11;6.87;;;5.30;;
9142;SDS011;54072;47.410;8.446;2023-04-16T04:02:39;6.33;;;5.27;;
9142;SDS011;54072;47.410;8.446;2023-04-16T04:05:07;7.13;;;5.37;;
9142;SDS011;54072;47.410;8.446;2023-04-16T04:07:34;6.20;;;5.10;;
9142;SDS011;54072;47.410;8.446;2023-04-16T04:10:02;5.83;;;5.07;;
9142;SDS011;54072;47.410;8.446;2023-04-16T04:12:30;5.90;;;5.30;;
9142;SDS011;54072;47.410;8.446;2023-04-16T04:14:59;7.07;;;5.80;;
9142;SDS011;54072;47.410;8.446;2023-04-16T04:17:27;7.00;;;5.73;;
9142;SDS011;54072;47.410;8.446;2023-04-16T04:19:54;6.10;;;5.40;;
9142;SDS011;54072;47.410;8.446;2023-04-16T04:22:26;6.07;;;5.33;;
9142;SDS011;54072;47.410;8.446;2023-04-16T04:24:53;6.03;;;5.23;;
9142;SDS011;54072;47.410;8.446;2023-04-16T04:27:20;6.53;;;5.83;;
9142;SDS011;54072;47.410;8.446;2023-04-16T04:29:48;7.33;;;5.97;;
9142;SDS011;54072;47.410;8.446;2023-04-16T04:32:17;6.67;;;5.63;;
9142;SDS011;54072;47.410;8.446;2023-04-16T04:34:44;7.33;;;5.90;;
9142;SDS011;54072;47.410;8.446;2023-04-16T04:37:12;10.60;;;5.60;;
9142;SDS011;54072;47.410;8.446;2023-04-16T04:39:39;8.00;;;5.67;;
9142;SDS011;54072;47.410;8.446;2023-04-16T04:42:07;7.07;;;6.00;;
9142;SDS011;54072;47.410;8.446;2023-04-16T04:44:34;8.50;;;5.53;;
9142;SDS011;54072;47.410;8.446;2023-04-16T04:47:02;9.00;;;5.80;;
9142;SDS011;54072;47.410;8.446;2023-04-16T04:49:31;7.67;;;5.77;;
9142;SDS011;54072;47.410;8.446;2023-04-16T04:51:59;6.67;;;5.57;;
9142;SDS011;54072;47.410;8.446;2023-04-16T04:54:26;6.77;;;5.80;;
9142;SDS011;54072;47.410;8.446;2023-04-16T04:56:54;7.37;;;5.80;;
9142;SDS011;54072;47.410;8.446;2023-04-16T04:59:21;7.30;;;6.07;;
9142;SDS011;54072;47.410;8.446;2023-04-16T05:01:49;7.10;;;5.40;;
9142;SDS011;54072;47.410;8.446;2023-04-16T05:04:17;6.43;;;5.27;;
9142;SDS011;54072;47.410;8.446;2023-04-16T05:06:46;6.67;;;5.27;;
9142;SDS011;54072;47.410;8.446;2023-04-16T05:09:13;7.33;;;6.17;;
9142;SDS011;54072;47.410;8.446;2023-04-16T05:11:41;7.87;;;4.97;;
9142;SDS011;54072;47.410;8.446;2023-04-16T05:14:08;6.67;;;5.50;;
9142;SDS011;54072;47.410;8.446;2023-04-16T05:16:36;6.60;;;5.40;;
9142;SDS011;54072;47.410;8.446;2023-04-16T05:19:04;7.77;;;5.67;;
9142;SDS011;54072;47.410;8.446;2023-04-16T05:21:32;6.77;;;5.80;;
9142;SDS011;54072;47.410;8.446;2023-04-16T05:24:01;7.13;;;5.70;;
9142;SDS011;54072;47.410;8.446;2023-04-16T05:26:28;5.70;;;4.90;;
9142;SDS011;54072;47.410;8.446;2023-04-16T05:28:56;7.40;;;5.37;;
9142;SDS011;54072;47.410;8.446;2023-04-16T05:31:24;7.13;;;5.50;;
9142;SDS011;54072;47.410;8.446;2023-04-16T05:33:51;6.23;;;5.13;;
9142;SDS011;54072;47.410;8.446;2023-04-16T05:36:20;6.57;;;5.07;;
9142;SDS011;54072;47.410;8.446;2023-04-16T05:38:47;7.27;;;5.30;;
9142;SDS011;54072;47.410;8.446;2023-04-16T05:41:16;6.13;;;5.20;;
9142;SDS011;54072;47.410;8.446;2023-04-16T05:43:43;9.37;;;5.63;;
9142;SDS011;54072;47.410;8.446;2023-04-16T05:46:11;6.60;;;5.20;;
9142;SDS011;54072;47.410;8.446;2023-04-16T05:48:38;7.47;;;5.43;;
9142;SDS011;54072;47.410;8.446;2023-04-16T05:51:06;6.50;;;5.13;;
9142;SDS011;54072;47.410;8.446;2023-04-16T05:53:34;6.90;;;5.30;;
9142;SDS011;54072;47.410;8.446;2023-04-16T05:56:01;6.87;;;5.33;;
9142;SDS011;54072;47.410;8.446;2023-04-16T05:58:30;5.77;;;5.07;;
9142;SDS011;54072;47.410;8.446;2023-04-16T06:00:57;7.13;;;5.40;;
9142;SDS011;54072;47.410;8.446;2023-04-16T06:03:26;8.10;;;5.43;;
9142;SDS011;54072;47.410;8.446;2023-04-16T06:05:54;8.57;;;5.50;;
9142;SDS011;54072;47.410;8.446;2023-04-16T06:08:21;6.90;;;5.20;;
9142;SDS011;54072;47.410;8.446;2023-04-16T06:10:49;6.47;;;5.47;;
9142;SDS011;54072;47.410;8.446;2023-04-16T06:13:17;6.20;;;5.50;;
9142;SDS011;54072;47.410;8.446;2023-04-16T06:15:46;6.30;;;5.00;;
9142;SDS011;54072;47.410;8.446;2023-04-16T06:18:13;5.83;;;5.20;;
9142;SDS011;54072;47.410;8.446;2023-04-16T06:20:41;9.03;;;5.40;;
9142;SDS011;54072;47.410;8.446;2023-04-16T06:23:08;6.10;;;5.27;;
9142;SDS011;54072;47.410;8.446;2023-04-16T06:25:36;6.20;;;5.00;;
9142;SDS011;54072;47.410;8.446;2023-04-16T06:28:03;6.33;;;5.40;;
9142;SDS011;54072;47.410;8.446;2023-04-16T06:30:31;6.37;;;5.40;;
9142;SDS011;54072;47.410;8.446;2023-04-16T06:33:00;6.77;;;4.90;;
9142;SDS011;54072;47.410;8.446;2023-04-16T06:35:27;6.43;;;5.40;;
9142;SDS011;54072;47.410;8.446;2023-04-16T06:37:55;6.73;;;5.17;;
9142;SDS011;54072;47.410;8.446;2023-04-16T06:40:23;7.13;;;5.23;;
9142;SDS011;54072;47.410;8.446;2023-04-16T06:42:50;7.00;;;5.93;;
9142;SDS011;54072;47.410;8.446;2023-04-16T06:45:17;5.37;;;4.83;;
9142;SDS011;54072;47.410;8.446;2023-04-16T06:47:45;7.07;;;4.80;;
9142;SDS011;54072;47.410;8.446;2023-04-16T06:50:14;6.57;;;4.90;;
9142;SDS011;54072;47.410;8.446;2023-04-16T06:52:42;6.03;;;5.10;;
9142;SDS011;54072;47.410;8.446;2023-04-16T06:55:09;6.40;;;4.57;;
9142;SDS011;54072;47.410;8.446;2023-04-16T06:57:37;7.07;;;4.40;;
9142;SDS011;54072;47.410;8.446;2023-04-16T07:00:06;5.77;;;4.90;;
9142;SDS011;54072;47.410;8.446;2023-04-16T07:02:34;4.47;;;4.07;;
9142;SDS011;54072;47.410;8.446;2023-04-16T07:05:01;5.20;;;4.50;;
9142;SDS011;54072;47.410;8.446;2023-04-16T07:07:31;5.50;;;3.97;;
9142;SDS011;54072;47.410;8.446;2023-04-16T07:09:58;5.77;;;4.23;;
9142;SDS011;54072;47.410;8.446;2023-04-16T07:12:26;5.03;;;4.20;;
9142;SDS011;54072;47.410;8.446;2023-04-16T07:14:54;5.40;;;4.40;;
9142;SDS011;54072;47.410;8.446;2023-04-16T07:17:21;4.73;;;4.13;;
9142;SDS011;54072;47.410;8.446;2023-04-16T07:19:50;4.27;;;3.57;;
9142;SDS011;54072;47.410;8.446;2023-04-16T07:22:18;3.80;;;3.37;;
9142;SDS011;54072;47.410;8.446;2023-04-16T07:24:46;3.33;;;3.03;;
9142;SDS011;54072;47.410;8.446;2023-04-16T07:27:14;3.50;;;3.10;;
9142;SDS011;54072;47.410;8.446;2023-04-16T07:29:42;3.50;;;3.20;;
9142;SDS011;54072;47.410;8.446;2023-04-16T07:32:10;3.20;;;2.90;;
9142;SDS011;54072;47.410;8.446;2023-04-16T07:34:39;3.43;;;2.93;;
9142;SDS011;54072;47.410;8.446;2023-04-16T07:37:07;3.53;;;2.90;;
9142;SDS011;54072;47.410;8.446;2023-04-16T07:39:34;3.80;;;3.50;;
9142;SDS011;54072;47.410;8.446;2023-04-16T07:42:03;3.53;;;3.10;;
9142;SDS011;54072;47.410;8.446;2023-04-16T07:44:30;5.47;;;3.87;;
9142;SDS011;54072;47.410;8.446;2023-04-16T07:46:58;4.00;;;3.20;;
9142;SDS011;54072;47.410;8.446;2023-04-16T07:49:26;3.33;;;3.03;;
9142;SDS011;54072;47.410;8.446;2023-04-16T07:51:54;4.10;;;3.10;;
9142;SDS011;54072;47.410;8.446;2023-04-16T07:54:21;2.73;;;2.53;;
9142;SDS011;54072;47.410;8.446;2023-04-16T07:56:49;4.50;;;3.20;;
9142;SDS011;54072;47.410;8.446;2023-04-16T07:59:18;3.30;;;3.00;;
9142;SDS011;54072;47.410;8.446;2023-04-16T08:01:47;3.30;;;3.00;;
9142;SDS011;54072;47.410;8.446;2023-04-16T08:04:15;4.07;;;3.20;;
9142;SDS011;54072;47.410;8.446;2023-04-16T08:06:48;3.30;;;2.90;;
9142;SDS011;54072;47.410;8.446;2023-04-16T08:09:15;4.00;;;3.17;;
9142;SDS011;54072;47.410;8.446;2023-04-16T08:11:43;4.70;;;3.27;;
9142;SDS011;54072;47.410;8.446;2023-04-16T08:14:11;3.30;;;3.00;;
9142;SDS011;54072;47.410;8.446;2023-04-16T08:16:40;3.40;;;2.70;;
9142;SDS011;54072;47.410;8.446;2023-04-16T08:19:07;2.70;;;2.50;;
9142;SDS011;54072;47.410;8.446;2023-04-16T08:21:35;2.93;;;2.73;;
9142;SDS011;54072;47.410;8.446;2023-04-16T08:24:03;3.17;;;2.67;;
9142;SDS011;54072;47.410;8.446;2023-04-16T08:26:30;2.87;;;2.67;;
9142;SDS011;54072;47.410;8.446;2023-04-16T08:28:58;2.97;;;2.77;;
9142;SDS011;54072;47.410;8.446;2023-04-16T08:31:25;2.93;;;2.73;;
9142;SDS011;54072;47.410;8.446;2023-04-16T08:33:54;3.10;;;2.80;;
9142;SDS011;54072;47.410;8.446;2023-04-16T08:36:22;3.40;;;3.10;;
9142;SDS011;54072;47.410;8.446;2023-04-16T08:38:49;4.07;;;3.10;;
9142;SDS011;54072;47.410;8.446;2023-04-16T08:41:17;3.60;;;3.17;;
9142;SDS011;54072;47.410;8.446;2023-04-16T08:43:47;4.00;;;3.10;;
9142;SDS011;54072;47.410;8.446;2023-04-16T08:46:16;3.27;;;3.00;;
9142;SDS011;54072;47.410;8.446;2023-04-16T08:48:46;3.23;;;3.00;;
9142;SDS011;54072;47.410;8.446;2023-04-16T08:51:16;3.13;;;2.93;;
9142;SDS011;54072;47.410;8.446;2023-04-16T08:53:47;3.60;;;3.30;;
9142;SDS011;54072;47.410;8.446;2023-04-16T08:56:15;3.33;;;3.03;;
9142;SDS011;54072;47.410;8.446;2023-04-16T08:58:45;3.10;;;2.90;;
9142;SDS011;54072;47.410;8.446;2023-04-16T09:01:13;3.17;;;2.90;;
9142;SDS011;54072;47.410;8.446;2023-04-16T09:03:42;2.90;;;2.70;;
9142;SDS011;54072;47.410;8.446;2023-04-16T09:06:11;2.97;;;2.73;;
9142;SDS011;54072;47.410;8.446;2023-04-16T09:08:40;2.87;;;2.67;;
9142;SDS011;54072;47.410;8.446;2023-04-16T09:11:10;3.50;;;3.00;;
9142;SDS011;54072;47.410;8.446;2023-04-16T09:13:38;3.20;;;2.90;;
9142;SDS011;54072;47.410;8.446;2023-04-16T09:16:06;5.50;;;3.10;;
9142;SDS011;54072;47.410;8.446;2023-04-16T09:18:33;3.40;;;2.80;;
9142;SDS011;54072;47.410;8.446;2023-04-16T09:21:01;3.53;;;3.20;;
9142;SDS011;54072;47.410;8.446;2023-04-16T09:23:29;3.90;;;3.20;;
9142;SDS011;54072;47.410;8.446;2023-04-16T09:25:58;3.80;;;3.50;;
9142;SDS011;54072;47.410;8.446;2023-04-16T09:28:38;3.30;;;3.00;;
9142;SDS011;54072;47.410;8.446;2023-04-16T09:31:06;4.07;;;3.70;;
9142;SDS011;54072;47.410;8.446;2023-04-16T09:33:34;4.60;;;4.07;;
9142;SDS011;54072;47.410;8.446;2023-04-16T09:36:01;5.73;;;5.13;;
9142;SDS011;54072;47.410;8.446;2023-04-16T09:38:44;6.67;;;5.33;;
9142;SDS011;54072;47.410;8.446;2023-04-16T09:41:13;3.80;;;3.50;;
9142;SDS011;54072;47.410;8.446;2023-04-16T09:43:48;5.00;;;3.83;;
9142;SDS011;54072;47.410;8.446;2023-04-16T09:46:16;7.97;;;4.53;;
9142;SDS011;54072;47.410;8.446;2023-04-16T09:48:44;4.67;;;3.40;;
9142;SDS011;54072;47.410;8.446;2023-04-16T09:51:12;5.73;;;3.60;;
9142;SDS011;54072;47.410;8.446;2023-04-16T09:53:39;4.63;;;3.57;;
9142;SDS011;54072;47.410;8.446;2023-04-16T09:56:07;3.80;;;3.40;;
9142;SDS011;54072;47.410;8.446;2023-04-16T09:58:36;4.77;;;3.63;;
9142;SDS011;54072;47.410;8.446;2023-04-16T10:01:05;3.67;;;3.23;;
9142;SDS011;54072;47.410;8.446;2023-04-16T10:03:33;5.33;;;4.83;;
9142;SDS011;54072;47.410;8.446;2023-04-16T10:06:06;5.17;;;4.20;;
9142;SDS011;54072;47.410;8.446;2023-04-16T10:08:33;4.70;;;3.33;;
9142;SDS011;54072;47.410;8.446;2023-04-16T10:11:01;4.70;;;3.37;;
9142;SDS011;54072;47.410;8.446;2023-04-16T10:13:28;4.10;;;3.10;;
9142;SDS011;54072;47.410;8.446;2023-04-16T10:15:58;4.07;;;3.60;;
9142;SDS011;54072;47.410;8.446;2023-04-16T10:18:26;4.20;;;3.80;;
9142;SDS011;54072;47.410;8.446;2023-04-16T10:20:53;5.20;;;4.70;;
9142;SDS011;54072;47.410;8.446;2023-04-16T10:23:21;6.23;;;4.83;;
9142;SDS011;54072;47.410;8.446;2023-04-16T10:25:49;5.57;;;4.70;;
9142;SDS011;54072;47.410;8.446;2023-04-16T10:28:16;5.50;;;4.40;;
9142;SDS011;54072;47.410;8.446;2023-04-16T10:30:46;7.20;;;5.30;;
9142;SDS011;54072;47.410;8.446;2023-04-16T10:33:22;6.23;;;5.47;;
9142;SDS011;54072;47.410;8.446;2023-04-16T10:35:51;6.77;;;5.53;;
9142;SDS011;54072;47.410;8.446;2023-04-16T10:38:26;6.60;;;5.43;;
9142;SDS011;54072;47.410;8.446;2023-04-16T10:40:57;7.80;;;6.53;;
9142;SDS011;54072;47.410;8.446;2023-04-16T10:43:26;8.03;;;5.43;;
9142;SDS011;54072;47.410;8.446;2023-04-16T10:45:54;5.67;;;5.17;;
9142;SDS011;54072;47.410;8.446;2023-04-16T10:48:23;6.87;;;5.07;;
9142;SDS011;54072;47.410;8.446;2023-04-16T10:50:54;5.53;;;4.90;;
9142;SDS011;54072;47.410;8.446;2023-04-16T10:53:24;8.63;;;5.33;;
9142;SDS011;54072;47.410;8.446;2023-04-16T10:55:55;7.97;;;5.20;;
9142;SDS011;54072;47.410;8.446;2023-04-16T10:58:26;5.67;;;5.17;;
9142;SDS011;54072;47.410;8.446;2023-04-16T11:00:54;6.87;;;5.63;;
9142;SDS011;54072;47.410;8.446;2023-04-16T11:03:21;6.03;;;5.20;;
9142;SDS011;54072;47.410;8.446;2023-04-16T11:05:50;5.30;;;4.80;;
9142;SDS011;54072;47.410;8.446;2023-04-16T11:08:18;4.83;;;4.40;;
9142;SDS011;54072;47.410;8.446;2023-04-16T11:10:45;5.57;;;4.90;;
9142;SDS011;54072;47.410;8.446;2023-04-16T11:13:13;6.00;;;5.40;;
9142;SDS011;54072;47.410;8.446;2023-04-16T11:15:41;6.30;;;5.47;;
9142;SDS011;54072;47.410;8.446;2023-04-16T11:18:09;5.70;;;5.03;;
9142;SDS011;54072;47.410;8.446;2023-04-16T11:20:40;5.60;;;5.10;;
9142;SDS011;54072;47.410;8.446;2023-04-16T11:23:09;5.47;;;4.93;;
9142;SDS011;54072;47.410;8.446;2023-04-16T11:25:38;5.67;;;5.00;;
9142;SDS011;54072;47.410;8.446;2023-04-16T11:28:06;5.43;;;4.93;;
9142;SDS011;54072;47.410;8.446;2023-04-16T11:30:33;4.90;;;4.50;;
9142;SDS011;54072;47.410;8.446;2023-04-16T11:33:01;4.53;;;4.13;;
9142;SDS011;54072;47.410;8.446;2023-04-16T11:35:29;5.33;;;4.83;;
9142;SDS011;54072;47.410;8.446;2023-04-16T11:37:56;5.10;;;4.70;;
9142;SDS011;54072;47.410;8.446;2023-04-16T11:40:26;5.20;;;4.70;;
9142;SDS011;54072;47.410;8.446;2023-04-16T11:42:59;4.90;;;4.50;;
9142;SDS011;54072;47.410;8.446;2023-04-16T11:45:27;5.27;;;4.77;;
9142;SDS011;54072;47.410;8.446;2023-04-16T11:47:54;5.07;;;4.67;;
9142;SDS011;54072;47.410;8.446;2023-04-16T11:50:23;5.20;;;4.70;;
9142;SDS011;54072;47.410;8.446;2023-04-16T11:52:52;5.53;;;4.87;;
9142;SDS011;54072;47.410;8.446;2023-04-16T11:55:20;5.70;;;5.07;;
9142;SDS011;54072;47.410;8.446;2023-04-16T11:57:50;5.60;;;5.10;;
9142;SDS011;54072;47.410;8.446;2023-04-16T12:00:17;7.10;;;5.30;;
9142;SDS011;54072;47.410;8.446;2023-04-16T12:02:47;6.37;;;5.50;;
9142;SDS011;54072;47.410;8.446;2023-04-16T12:05:25;6.90;;;5.50;;
9142;SDS011;54072;47.410;8.446;2023-04-16T12:07:53;6.00;;;5.40;;
9142;SDS011;54072;47.410;8.446;2023-04-16T12:10:21;6.63;;;5.43;;
9142;SDS011;54072;47.410;8.446;2023-04-16T12:12:50;6.83;;;6.13;;
9142;SDS011;54072;47.410;8.446;2023-04-16T12:15:18;8.17;;;5.90;;
9142;SDS011;54072;47.410;8.446;2023-04-16T12:17:45;8.03;;;5.97;;
9142;SDS011;54072;47.410;8.446;2023-04-16T12:20:14;6.20;;;5.60;;
9142;SDS011;54072;47.410;8.446;2023-04-16T12:22:43;7.43;;;5.60;;
9142;SDS011;54072;47.410;8.446;2023-04-16T12:25:11;6.03;;;5.13;;
9142;SDS011;54072;47.410;8.446;2023-04-16T12:27:45;5.60;;;5.10;;
9142;SDS011;54072;47.410;8.446;2023-04-16T12:30:15;8.03;;;6.10;;
9142;SDS011;54072;47.410;8.446;2023-04-16T12:32:43;6.83;;;5.63;;
9142;SDS011;54072;47.410;8.446;2023-04-16T12:35:11;5.93;;;5.33;;
9142;SDS011;54072;47.410;8.446;2023-04-16T12:37:39;8.67;;;6.43;;
9142;SDS011;54072;47.410;8.446;2023-04-16T12:40:07;8.33;;;6.73;;
9142;SDS011;54072;47.410;8.446;2023-04-16T12:42:35;6.27;;;5.37;;
9142;SDS011;54072;47.410;8.446;2023-04-16T12:45:03;7.07;;;5.33;;
9142;SDS011;54072;47.410;8.446;2023-04-16T12:47:32;8.93;;;6.00;;
9142;SDS011;54072;47.410;8.446;2023-04-16T12:49:59;7.17;;;5.93;;
9142;SDS011;54072;47.410;8.446;2023-04-16T12:52:27;8.73;;;6.20;;
9142;SDS011;54072;47.410;8.446;2023-04-16T12:54:54;6.70;;;5.93;;
9142;SDS011;54072;47.410;8.446;2023-04-16T12:57:22;9.27;;;6.37;;
9142;SDS011;54072;47.410;8.446;2023-04-16T12:59:53;8.70;;;6.20;;
9142;SDS011;54072;47.410;8.446;2023-04-16T13:02:22;7.83;;;6.27;;
9142;SDS011;54072;47.410;8.446;2023-04-16T13:04:51;8.17;;;6.30;;
9142;SDS011;54072;47.410;8.446;2023-04-16T13:07:19;6.67;;;5.97;;
9142;SDS011;54072;47.410;8.446;2023-04-16T13:09:46;6.40;;;5.60;;
9142;SDS011;54072;47.410;8.446;2023-04-16T13:12:14;5.93;;;5.33;;
9142;SDS011;54072;47.410;8.446;2023-04-16T13:14:41;6.43;;;5.60;;
9142;SDS011;54072;47.410;8.446;2023-04-16T13:17:10;5.90;;;5.30;;
9142;SDS011;54072;47.410;8.446;2023-04-16T13:19:37;7.33;;;6.60;;
9142;SDS011;54072;47.410;8.446;2023-04-16T13:22:06;7.10;;;6.40;;
9142;SDS011;54072;47.410;8.446;2023-04-16T13:24:34;7.27;;;5.87;;
9142;SDS011;54072;47.410;8.446;2023-04-16T13:27:02;6.93;;;5.80;;
9142;SDS011;54072;47.410;8.446;2023-04-16T13:29:29;8.30;;;5.87;;
9142;SDS011;54072;47.410;8.446;2023-04-16T13:31:57;6.47;;;5.00;;
9142;SDS011;54072;47.410;8.446;2023-04-16T13:34:24;5.10;;;4.60;;
9142;SDS011;54072;47.410;8.446;2023-04-16T13:36:52;5.37;;;4.83;;
9142;SDS011;54072;47.410;8.446;2023-04-16T13:39:21;7.10;;;5.20;;
9142;SDS011;54072;47.410;8.446;2023-04-16T13:41:48;5.30;;;4.80;;
9142;SDS011;54072;47.410;8.446;2023-04-16T13:44:16;5.90;;;4.50;;
9142;SDS011;54072;47.410;8.446;2023-04-16T13:46:44;5.30;;;4.40;;
9142;SDS011;54072;47.410;8.446;2023-04-16T13:49:12;5.03;;;4.27;;
9142;SDS011;54072;47.410;8.446;2023-04-16T13:51:41;11.07;;;6.97;;
9142;SDS011;54072;47.410;8.446;2023-04-16T13:54:08;12.30;;;7.83;;
9142;SDS011;54072;47.410;8.446;2023-04-16T13:56:37;11.00;;;7.60;;
9142;SDS011;54072;47.410;8.446;2023-04-16T13:59:05;6.30;;;5.63;;
9142;SDS011;54072;47.410;8.446;2023-04-16T14:01:33;6.03;;;3.80;;
9142;SDS011;54072;47.410;8.446;2023-04-16T14:04:01;3.77;;;3.20;;
9142;SDS011;54072;47.410;8.446;2023-04-16T14:06:31;3.23;;;2.73;;
9142;SDS011;54072;47.410;8.446;2023-04-16T14:08:58;3.57;;;3.13;;
9142;SDS011;54072;47.410;8.446;2023-04-16T14:11:26;3.27;;;2.93;;
9142;SDS011;54072;47.410;8.446;2023-04-16T14:13:55;3.23;;;2.93;;
9142;SDS011;54072;47.410;8.446;2023-04-16T14:16:23;4.10;;;3.20;;
9142;SDS011;54072;47.410;8.446;2023-04-16T14:18:51;4.57;;;3.50;;
9142;SDS011;54072;47.410;8.446;2023-04-16T14:21:18;3.53;;;3.20;;
9142;SDS011;54072;47.410;8.446;2023-04-16T14:23:46;3.23;;;3.00;;
9142;SDS011;54072;47.410;8.446;2023-04-16T14:26:13;3.90;;;3.10;;
9142;SDS011;54072;47.410;8.446;2023-04-16T14:28:41;3.77;;;3.33;;
9142;SDS011;54072;47.410;8.446;2023-04-16T14:31:10;13.03;;;9.93;;
9142;SDS011;54072;47.410;8.446;2023-04-16T14:33:37;7.43;;;5.93;;
9142;SDS011;54072;47.410;8.446;2023-04-16T14:36:05;4.00;;;3.60;;
9142;SDS011;54072;47.410;8.446;2023-04-16T14:38:32;4.30;;;3.90;;
9142;SDS011;54072;47.410;8.446;2023-04-16T14:41:00;4.43;;;4.03;;
9142;SDS011;54072;47.410;8.446;2023-04-16T14:43:27;4.93;;;4.50;;
9142;SDS011;54072;47.410;8.446;2023-04-16T14:45:56;5.77;;;3.53;;
9142;SDS011;54072;47.410;8.446;2023-04-16T14:48:26;4.03;;;3.63;;
9142;SDS011;54072;47.410;8.446;2023-04-16T14:50:53;3.40;;;3.10;;
9142;SDS011;54072;47.410;8.446;2023-04-16T14:53:21;4.37;;;3.73;;
9142;SDS011;54072;47.410;8.446;2023-04-16T14:55:49;5.10;;;3.87;;
9142;SDS011;54072;47.410;8.446;2023-04-16T14:58:16;4.33;;;3.93;;
9142;SDS011;54072;47.410;8.446;2023-04-16T15:00:44;4.80;;;4.20;;
9142;SDS011;54072;47.410;8.446;2023-04-16T15:03:11;5.83;;;3.83;;
9142;SDS011;54072;47.410;8.446;2023-04-16T15:05:41;5.57;;;4.50;;